Time;durP1;ratioP1;P1;durP2;ratioP2;P2;SDS_P1;SDS_P2;PMS_P1;PMS_P2;Temp;Humidity;BMP_temperature;BMP_pressure;BME280_temperature;BME280_humidity;BME280_pressure;Samples;Min_cycle;Max_cycle;Signal;HPM_P1;HPM_P2
2023/09/17 00:03:30;;;;;;;23.13;16.85;;;;;;;17.77;90.96;101552.06;10341397;28;20056;-66
2023/09/17 00:08:51;;;;;;;24.20;18.00;;;;;;;17.71;90.87;101548.88;10362619;28;20132;-66
2023/09/17 00:14:13;;;;;;;26.85;18.83;;;;;;;17.65;91.86;101554.41;10356200;28;20164;-65
2023/09/17 00:19:35;;;;;;;23.58;18.55;;;;;;;17.55;92.67;101553.16;10352374;28;20050;-67
2023/09/17 00:24:56;;;;;;;25.50;19.10;;;;;;;17.60;92.33;101553.81;10354612;28;20054;-65
2023/09/17 00:30:18;;;;;;;24.40;17.77;;;;;;;17.58;91.65;101551.22;10350694;28;20053;-65
2023/09/17 00:35:40;;;;;;;26.52;17.92;;;;;;;17.57;91.45;101546.94;10363525;28;20056;-67
2023/09/17 00:41:01;;;;;;;22.95;16.50;;;;;;;17.53;91.64;101539.28;10358308;28;20054;-67
2023/09/17 00:46:23;;;;;;;22.63;18.15;;;;;;;17.50;92.09;101544.66;10350654;28;20489;-66
2023/09/17 00:51:45;;;;;;;26.35;19.23;;;;;;;17.46;91.80;101543.94;10355205;28;20654;-67
2023/09/17 00:57:07;;;;;;;26.05;19.23;;;;;;;17.44;92.21;101539.69;10361813;28;20477;-67
2023/09/17 01:02:29;;;;;;;24.63;19.20;;;;;;;17.39;91.84;101532.06;10353099;28;20128;-66
2023/09/17 01:07:51;;;;;;;27.15;19.95;;;;;;;17.36;93.00;101536.59;10441113;28;20045;-66
2023/09/17 01:13:14;;;;;;;27.00;19.42;;;;;;;17.32;93.02;101535.03;10427407;28;20048;-66
2023/09/17 01:18:36;;;;;;;28.02;20.27;;;;;;;17.32;92.61;101527.19;10423128;28;20133;-66
2023/09/17 01:24:16;;;;;;;27.63;20.33;;;;;;;17.32;92.95;101528.03;10424248;28;20044;-67
2023/09/17 01:29:40;;;;;;;29.85;21.50;;;;;;;17.31;92.99;101522.84;10433220;28;20396;-66
2023/09/17 01:35:02;;;;;;;30.05;22.13;;;;;;;17.29;93.79;101519.50;10446727;28;20044;-66
2023/09/17 01:40:24;;;;;;;30.05;23.13;;;;;;;17.27;92.93;101514.31;10415808;28;20131;-66
2023/09/17 01:45:46;;;;;;;33.10;22.48;;;;;;;17.27;93.41;101505.63;10429305;28;20141;-66
2023/09/17 01:51:11;;;;;;;29.73;22.35;;;;;;;17.23;93.53;101494.47;10430834;28;20049;-66
2023/09/17 01:56:39;;;;;;;38.13;24.50;;;;;;;17.20;94.45;101493.72;10428826;28;20067;-67
2023/09/17 02:02:01;;;;;;;38.97;27.30;;;;;;;17.22;94.95;101476.19;10433445;28;20144;-67
2023/09/17 02:07:22;;;;;;;38.70;28.30;;;;;;;17.21;95.57;101479.75;10435340;28;20111;-66
2023/09/17 02:12:44;;;;;;;42.95;31.55;;;;;;;17.23;95.95;101478.75;10415748;28;20441;-67
2023/09/17 02:18:06;;;;;;;44.10;31.77;;;;;;;17.25;96.69;101481.31;10434876;28;20874;-67
2023/09/17 02:23:28;;;;;;;45.72;32.08;;;;;;;17.24;96.79;101479.59;10433557;28;20048;-67
2023/09/17 02:28:49;;;;;;;43.25;30.67;;;;;;;17.24;96.44;101479.59;10438342;28;20051;-67
2023/09/17 02:34:11;;;;;;;41.83;31.25;;;;;;;17.13;97.19;101480.09;10426909;28;20070;-67
2023/09/17 02:39:35;;;;;;;43.47;31.35;;;;;;;17.14;97.42;101488.81;10443513;28;20098;-67
2023/09/17 02:44:57;;;;;;;43.53;30.27;;;;;;;17.17;96.76;101478.19;10424949;28;20076;-66
2023/09/17 02:50:19;;;;;;;42.70;31.33;;;;;;;17.21;97.43;101484.97;10432922;28;20056;-67
2023/09/17 02:55:41;;;;;;;44.03;31.15;;;;;;;17.18;96.60;101485.97;10422659;28;20062;-66
2023/09/17 03:01:14;;;;;;;46.60;31.85;;;;;;;17.24;97.23;101490.06;10417229;28;20048;-67
2023/09/17 03:06:37;;;;;;;44.70;31.35;;;;;;;17.28;96.99;101481.16;10418679;28;20049;-67
2023/09/17 03:11:58;;;;;;;44.08;32.22;;;;;;;17.30;97.07;101495.00;10428866;28;20048;-67
2023/09/17 03:17:20;;;;;;;42.63;30.50;;;;;;;17.31;97.33;101491.47;10426549;28;21050;-67
2023/09/17 03:22:43;;;;;;;44.45;30.35;;;;;;;17.34;98.37;101493.94;10437206;28;20464;-67
2023/09/17 03:28:05;;;;;;;42.55;29.92;;;;;;;17.39;98.67;101495.44;10433613;28;20052;-67
2023/09/17 03:33:27;;;;;;;35.53;26.52;;;;;;;17.40;99.83;101494.50;10429259;28;20490;-67
2023/09/17 03:38:49;;;;;;;34.78;27.05;;;;;;;17.47;100.00;101502.91;10432471;28;20041;-67
2023/09/17 03:44:10;;;;;;;41.35;27.52;;;;;;;17.52;98.88;101498.34;10435696;28;20044;-67
2023/09/17 03:49:33;;;;;;;37.17;26.90;;;;;;;17.50;100.00;101498.41;10417594;28;20405;-66
2023/09/17 03:54:55;;;;;;;37.20;27.77;;;;;;;17.54;100.00;101514.81;10428369;28;20594;-66
2023/09/17 04:00:17;;;;;;;43.08;27.17;;;;;;;17.53;100.00;101502.63;10427442;28;20051;-66
2023/09/17 04:05:39;;;;;;;43.50;27.90;;;;;;;17.51;100.00;101507.09;10409990;28;20045;-66
2023/09/17 04:11:01;;;;;;;44.22;28.17;;;;;;;17.52;100.00;101503.56;10423436;28;20057;-66
2023/09/17 04:16:23;;;;;;;52.60;30.05;;;;;;;17.51;100.00;101494.00;10423253;28;20059;-66
2023/09/17 04:21:45;;;;;;;51.45;30.88;;;;;;;17.51;100.00;101504.47;10418462;28;20072;-66
2023/09/17 04:27:07;;;;;;;53.85;31.08;;;;;;;17.46;100.00;101498.59;10423096;28;20040;-66
2023/09/17 04:32:29;;;;;;;60.85;31.08;;;;;;;17.48;100.00;101509.88;10428338;28;20064;-66
2023/09/17 04:37:51;;;;;;;61.88;31.13;;;;;;;17.52;100.00;101506.19;10420700;28;20045;-66
2023/09/17 04:43:13;;;;;;;63.47;31.42;;;;;;;17.54;100.00;101520.06;10426096;28;20052;-66
2023/09/17 04:48:35;;;;;;;66.13;31.90;;;;;;;17.51;100.00;101521.03;10439349;28;20072;-66
2023/09/17 04:53:57;;;;;;;69.38;32.17;;;;;;;17.53;100.00;101518.34;10440776;28;20053;-66
2023/09/17 04:59:19;;;;;;;71.45;32.50;;;;;;;17.51;100.00;101521.03;10430628;28;20060;-66
2023/09/17 05:04:40;;;;;;;76.03;33.17;;;;;;;17.49;100.00;101516.81;10418496;28;20055;-67
2023/09/17 05:10:02;;;;;;;67.20;29.65;;;;;;;17.42;100.00;101526.69;10426898;28;20048;-67
2023/09/17 05:15:24;;;;;;;68.30;30.63;;;;;;;17.44;100.00;101521.38;10423280;28;20073;-67
2023/09/17 05:20:48;;;;;;;59.35;29.08;;;;;;;17.43;100.00;101523.16;10428736;28;20060;-66
2023/09/17 05:26:09;;;;;;;60.35;29.20;;;;;;;17.48;100.00;101522.94;10442519;28;20090;-67
2023/09/17 05:31:32;;;;;;;56.17;28.75;;;;;;;17.53;100.00;101523.56;10430779;28;20440;-67
2023/09/17 05:36:54;;;;;;;61.33;29.92;;;;;;;17.58;100.00;101519.00;10426745;28;20477;-67
2023/09/17 05:42:16;;;;;;;62.25;32.40;;;;;;;17.61;100.00;101526.69;10421979;28;20083;-67
2023/09/17 05:47:38;;;;;;;60.90;31.73;;;;;;;17.61;100.00;101521.44;10417508;28;20037;-67
2023/09/17 05:53:00;;;;;;;54.55;30.38;;;;;;;17.57;100.00;101535.59;10420651;28;20214;-67
2023/09/17 05:58:21;;;;;;;54.58;30.67;;;;;;;17.58;100.00;101526.84;10422377;28;20053;-68
2023/09/17 06:03:44;;;;;;;47.95;29.27;;;;;;;17.60;100.00;101517.16;10406358;28;20040;-67
2023/09/17 06:09:06;;;;;;;44.30;27.10;;;;;;;17.60;100.00;101525.00;10418456;28;20508;-67
2023/09/17 06:14:27;;;;;;;54.97;28.15;;;;;;;17.65;100.00;101512.53;10424223;28;20064;-67
2023/09/17 06:19:49;;;;;;;47.53;29.90;;;;;;;17.72;100.00;101511.31;10426967;28;20049;-67
2023/09/17 06:25:11;;;;;;;45.50;30.67;;;;;;;17.73;100.00;101505.16;10420994;28;20858;-67
2023/09/17 06:30:33;;;;;;;46.20;30.45;;;;;;;17.79;100.00;101510.94;10422173;28;20037;-67
2023/09/17 06:35:55;;;;;;;45.50;32.25;;;;;;;17.86;100.00;101524.56;10424570;28;20058;-67
2023/09/17 06:41:17;;;;;;;46.42;32.45;;;;;;;17.93;100.00;101512.88;10423733;28;20053;-67
2023/09/17 06:46:39;;;;;;;49.25;35.25;;;;;;;17.93;100.00;101513.72;10424692;28;20045;-68
2023/09/17 06:52:00;;;;;;;55.70;36.80;;;;;;;17.92;100.00;101511.19;10414405;28;20049;-67
2023/09/17 06:57:22;;;;;;;64.07;38.05;;;;;;;17.98;100.00;101524.81;10429186;28;20060;-67
2023/09/17 07:02:44;;;;;;;49.35;36.65;;;;;;;17.99;100.00;101509.97;10427031;28;20095;-67
2023/09/17 07:08:06;;;;;;;51.20;36.97;;;;;;;17.98;100.00;101495.19;10408397;28;20046;-67
2023/09/17 07:13:27;;;;;;;50.63;34.35;;;;;;;17.98;100.00;101489.94;10418508;28;20052;-66
2023/09/17 07:18:51;;;;;;;49.92;35.25;;;;;;;18.05;100.00;101491.31;10426102;28;20107;-66
2023/09/17 07:24:13;;;;;;;50.00;34.42;;;;;;;18.12;99.45;101482.22;10402041;28;20036;-67
2023/09/17 07:29:34;;;;;;;48.92;34.22;;;;;;;18.17;100.00;101474.13;10418702;28;20052;-67
2023/09/17 07:34:56;;;;;;;50.92;33.78;;;;;;;18.19;100.00;101473.13;10418814;28;20167;-67
2023/09/17 07:40:18;;;;;;;53.70;33.70;;;;;;;18.24;99.95;101462.44;10416862;28;20049;-66
2023/09/17 07:45:40;;;;;;;45.63;31.67;;;;;;;18.32;100.00;101470.72;10417551;28;20055;-66
2023/09/17 07:51:02;;;;;;;45.13;31.85;;;;;;;18.40;99.93;101482.53;10412132;28;20040;-67
2023/09/17 07:56:24;;;;;;;45.25;33.83;;;;;;;18.46;100.00;101466.47;10401733;28;20041;-66
2023/09/17 08:01:48;;;;;;;49.97;35.78;;;;;;;18.58;100.00;101460.63;10418755;28;20041;-67
2023/09/17 08:07:11;;;;;;;51.65;35.22;;;;;;;18.69;99.32;101463.50;10420596;28;20619;-65
2023/09/17 08:12:33;;;;;;;49.60;34.72;;;;;;;18.75;99.97;101462.34;10419092;28;20140;-66
2023/09/17 08:17:54;;;;;;;47.53;33.55;;;;;;;18.79;100.00;101456.84;10420009;28;20053;-67
2023/09/17 08:23:16;;;;;;;45.53;32.17;;;;;;;18.88;99.21;101464.19;10425541;28;20056;-66
2023/09/17 08:28:41;;;;;;;44.60;31.17;;;;;;;19.00;98.37;101445.19;10423977;28;20052;-66
2023/09/17 08:34:03;;;;;;;33.57;25.87;;;;;;;19.13;97.98;101444.50;10407638;28;20049;-67
2023/09/17 08:39:25;;;;;;;42.28;29.70;;;;;;;19.27;98.08;101444.56;10437382;28;20055;-67
2023/09/17 08:44:50;;;;;;;38.38;29.00;;;;;;;19.29;97.25;101427.81;10414824;28;20236;-67
2023/09/17 08:50:12;;;;;;;40.78;27.02;;;;;;;19.34;98.15;101430.22;10416673;28;20053;-69
2023/09/17 08:55:34;;;;;;;39.20;25.23;;;;;;;19.47;96.35;101439.06;10405397;28;20056;-67
2023/09/17 09:01:08;;;;;;;34.10;22.92;;;;;;;19.64;95.64;101444.22;10404926;28;20076;-69
2023/09/17 09:06:33;;;;;;;31.15;22.33;;;;;;;19.75;94.34;101447.06;10412975;28;20126;-68
2023/09/17 09:11:55;;;;;;;33.25;23.95;;;;;;;19.87;93.26;101438.47;10425685;28;20056;-68
2023/09/17 09:17:17;;;;;;;37.13;23.23;;;;;;;19.97;93.09;101432.59;10432816;28;20991;-68
2023/09/17 09:22:40;;;;;;;26.92;21.20;;;;;;;20.07;92.89;101422.34;10421513;28;20072;-68
2023/09/17 09:28:02;;;;;;;32.22;21.98;;;;;;;20.21;92.89;101414.53;10401523;28;20052;-67
2023/09/17 09:33:26;;;;;;;29.85;21.23;;;;;;;20.27;92.54;101398.41;10397136;28;20057;-67
2023/09/17 09:38:49;;;;;;;25.15;18.02;;;;;;;20.39;91.80;101392.38;10382355;28;20072;-67
2023/09/17 09:44:11;;;;;;;22.13;16.02;;;;;;;20.55;90.90;101379.97;10419372;28;20029;-68
2023/09/17 09:49:44;;;;;;;20.67;15.70;;;;;;;20.70;90.30;101381.63;10407709;28;20140;-67
2023/09/17 09:55:06;;;;;;;20.40;15.07;;;;;;;20.77;90.32;101372.41;10419543;28;20045;-68
2023/09/17 10:00:29;;;;;;;17.52;12.30;;;;;;;20.92;89.28;101381.13;10428712;28;20570;-68
2023/09/17 10:05:51;;;;;;;11.75;9.60;;;;;;;20.95;89.09;101373.88;10414944;28;21378;-69
2023/09/17 10:11:14;;;;;;;10.45;8.75;;;;;;;21.00;88.19;101368.34;10399014;28;20053;-69
2023/09/17 10:16:36;;;;;;;11.27;8.98;;;;;;;21.00;87.54;101371.81;10411150;28;20059;-69
2023/09/17 10:21:58;;;;;;;12.45;8.90;;;;;;;21.02;88.10;101369.09;10406049;28;20049;-69
2023/09/17 10:27:22;;;;;;;10.43;8.80;;;;;;;21.02;88.19;101355.09;10415742;28;20680;-69
2023/09/17 10:32:47;;;;;;;11.68;8.77;;;;;;;21.05;87.93;101339.94;10414228;28;20060;-68
2023/09/17 10:38:09;;;;;;;12.27;8.02;;;;;;;21.19;86.91;101333.78;10403093;28;20807;-69
2023/09/17 10:43:36;;;;;;;10.98;7.80;;;;;;;21.41;86.74;101341.91;10437447;28;20476;-69
2023/09/17 10:48:58;;;;;;;9.80;7.28;;;;;;;21.56;86.10;101338.25;10414707;28;20049;-68
2023/09/17 10:54:20;;;;;;;8.68;7.07;;;;;;;21.63;86.58;101340.38;10424451;28;20595;-68
2023/09/17 10:59:43;;;;;;;12.60;7.07;;;;;;;21.73;86.74;101332.72;10417331;28;20040;-68
2023/09/17 11:05:08;;;;;;;7.47;6.63;;;;;;;21.82;87.21;101334.75;10423860;28;20049;-68
2023/09/17 11:10:30;;;;;;;8.13;6.38;;;;;;;21.93;86.55;101324.31;10411466;28;20060;-68
2023/09/17 11:15:56;;;;;;;9.00;6.25;;;;;;;21.99;86.06;101334.44;10412887;28;20104;-69
2023/09/17 11:21:26;;;;;;;6.05;5.20;;;;;;;22.10;86.04;101342.44;10407190;28;20052;-71
2023/09/17 11:26:48;;;;;;;5.30;4.80;;;;;;;22.18;84.55;101348.00;10407929;28;20055;-70
2023/09/17 11:32:11;;;;;;;6.43;5.40;;;;;;;22.16;85.76;101344.63;10396528;28;20056;-68
2023/09/17 11:37:45;;;;;;;8.05;5.38;;;;;;;22.08;86.54;101333.81;10416034;28;20056;-70
2023/09/17 11:43:12;;;;;;;7.82;6.32;;;;;;;21.98;88.63;101323.03;10434353;28;20080;-69
2023/09/17 11:48:35;;;;;;;9.07;6.68;;;;;;;21.91;89.92;101320.94;10443514;23;20120;-69
2023/09/17 12:00:34;;;;;;;7.38;6.63;;;;;;;21.98;90.70;101301.94;10450162;28;20044;-69
2023/09/17 12:06:04;;;;;;;8.63;6.65;;;;;;;22.23;90.76;101306.34;10458611;28;20516;-68
2023/09/17 12:11:26;;;;;;;7.85;5.78;;;;;;;22.33;90.85;101296.84;10457251;28;20040;-68
2023/09/17 12:16:49;;;;;;;8.65;5.72;;;;;;;22.47;89.77;101293.22;10461344;28;20059;-68
2023/09/17 12:22:11;;;;;;;6.53;5.80;;;;;;;22.52;90.17;101289.28;10449860;28;20045;-68
2023/09/17 12:27:45;;;;;;;6.70;5.57;;;;;;;22.54;89.13;101283.91;10450507;28;20048;-69
2023/09/17 12:33:10;;;;;;;9.95;5.45;;;;;;;22.54;89.06;101273.34;10454359;28;20043;-69
2023/09/17 12:38:31;;;;;;;5.20;4.70;;;;;;;22.62;88.20;101268.38;10443652;28;20147;-69
2023/09/17 12:43:53;;;;;;;4.00;3.60;;;;;;;22.61;87.55;101264.91;10449180;28;20546;-69
2023/09/17 12:49:17;;;;;;;5.35;3.80;;;;;;;22.68;86.41;101260.88;10441663;28;21040;-68
2023/09/17 12:54:39;;;;;;;4.60;4.00;;;;;;;22.63;86.67;101247.16;10430324;28;20417;-69
2023/09/17 13:00:03;;;;;;;7.75;4.68;;;;;;;22.78;87.27;101246.00;10454008;28;20033;-69
2023/09/17 13:05:25;;;;;;;8.63;4.47;;;;;;;22.73;86.04;101248.16;10449407;28;20132;-68
2023/09/17 13:10:48;;;;;;;5.95;4.07;;;;;;;22.84;84.94;101256.13;10443475;28;20051;-67
2023/09/17 13:16:14;;;;;;;8.25;4.15;;;;;;;22.88;85.25;101246.19;10466002;28;20543;-66
2023/09/17 13:21:37;;;;;;;4.15;3.75;;;;;;;23.09;83.32;101254.31;10466838;28;20036;-67
2023/09/17 13:27:00;;;;;;;5.85;3.50;;;;;;;23.28;81.76;101239.59;10468084;28;20063;-67
2023/09/17 13:32:22;;;;;;;5.22;3.30;;;;;;;23.33;82.06;101248.03;10477728;28;20044;-67
2023/09/17 13:37:44;;;;;;;5.38;3.88;;;;;;;23.42;79.06;101244.69;10473551;28;20060;-69
2023/09/17 13:43:05;;;;;;;4.30;3.80;;;;;;;23.49;81.68;101253.00;10464427;28;20049;-74
2023/09/17 13:48:28;;;;;;;4.68;3.92;;;;;;;23.44;82.29;101255.16;10452321;28;20095;-71
2023/09/17 13:53:50;;;;;;;8.68;3.83;;;;;;;23.54;81.94;101258.75;10478231;28;20041;-70
2023/09/17 13:59:11;;;;;;;5.85;4.45;;;;;;;23.78;80.42;101254.22;10470748;28;20052;-70
2023/09/17 14:04:33;;;;;;;7.68;4.70;;;;;;;23.75;81.23;101239.44;10436795;28;21975;-70
2023/09/17 14:09:55;;;;;;;5.45;4.85;;;;;;;23.74;81.58;101227.19;10457310;28;20047;-70
2023/09/17 14:15:17;;;;;;;6.68;4.63;;;;;;;23.99;81.24;101231.34;10450793;28;20056;-70
2023/09/17 14:20:39;;;;;;;5.15;4.50;;;;;;;24.18;81.12;101210.47;10469088;28;20040;-69
2023/09/17 14:26:00;;;;;;;5.50;4.50;;;;;;;24.29;81.49;101199.84;10435361;28;20726;-68
2023/09/17 14:31:22;;;;;;;6.57;4.22;;;;;;;24.23;79.84;101188.94;10457113;28;20435;-69
2023/09/17 14:36:44;;;;;;;6.10;4.60;;;;;;;24.31;80.79;101195.28;10445409;28;20063;-69
2023/09/17 14:42:06;;;;;;;4.50;4.07;;;;;;;24.35;80.42;101194.06;10459792;28;20048;-69
2023/09/17 14:47:27;;;;;;;4.70;3.90;;;;;;;24.30;80.83;101183.00;10475825;28;20057;-68
2023/09/17 14:52:49;;;;;;;5.03;4.00;;;;;;;24.29;80.06;101176.03;10452128;28;20064;-69
2023/09/17 14:58:11;;;;;;;4.68;3.88;;;;;;;24.35;80.24;101178.19;10463571;28;20074;-69
2023/09/17 15:03:33;;;;;;;8.45;4.30;;;;;;;24.50;78.91;101184.84;10454598;28;20693;-69
2023/09/17 15:08:55;;;;;;;4.32;3.92;;;;;;;24.63;80.33;101179.41;10476075;28;20064;-70
2023/09/17 15:14:17;;;;;;;4.13;3.72;;;;;;;24.76;79.46;101180.06;10460427;28;20044;-70
2023/09/17 15:19:38;;;;;;;5.53;4.10;;;;;;;24.88;79.00;101163.19;10474705;28;20054;-69
2023/09/17 15:25:00;;;;;;;8.73;3.53;;;;;;;24.95;78.75;101174.06;10455563;28;20057;-70
2023/09/17 15:30:22;;;;;;;5.05;3.83;;;;;;;24.99;77.74;101160.47;10454948;28;21001;-69
2023/09/17 15:35:43;;;;;;;4.55;3.70;;;;;;;24.94;78.81;101167.13;10455440;28;20056;-69
2023/09/17 15:41:06;;;;;;;5.15;3.75;;;;;;;24.92;77.51;101161.97;10438485;28;20067;-69
2023/09/17 15:46:27;;;;;;;3.83;3.42;;;;;;;24.94;78.81;101161.81;10449109;28;20145;-71
2023/09/17 15:51:49;;;;;;;3.67;3.38;;;;;;;24.91;79.17;101159.44;10453243;28;20065;-71
2023/09/17 15:57:11;;;;;;;3.75;3.45;;;;;;;24.73;79.31;101160.00;10463089;28;20649;-71
2023/09/17 16:02:33;;;;;;;4.85;3.10;;;;;;;24.79;80.15;101170.09;10449390;28;20071;-71
2023/09/17 16:07:55;;;;;;;4.88;3.72;;;;;;;24.66;80.34;101163.25;10454590;28;20053;-71
2023/09/17 16:13:18;;;;;;;5.07;3.83;;;;;;;24.56;81.12;101168.47;10362992;28;20058;-71
2023/09/17 16:18:39;;;;;;;4.47;3.40;;;;;;;24.63;80.80;101169.63;10373068;28;20060;-71
2023/09/17 16:24:02;;;;;;;4.30;3.85;;;;;;;24.57;80.91;101167.53;10376765;28;20778;-70
2023/09/17 16:29:23;;;;;;;5.65;3.33;;;;;;;24.49;81.57;101164.66;10390874;28;20050;-71
2023/09/17 16:34:47;;;;;;;4.45;4.05;;;;;;;24.45;81.82;101171.16;10377495;28;20055;-71
2023/09/17 16:40:12;;;;;;;5.67;3.73;;;;;;;24.38;81.52;101172.63;10371251;28;20042;-70
2023/09/17 16:45:34;;;;;;;5.60;3.53;;;;;;;24.29;81.69;101177.84;10360947;28;20722;-72
2023/09/17 16:50:55;;;;;;;4.85;3.50;;;;;;;24.18;81.89;101173.41;10361564;28;20103;-72
2023/09/17 16:56:17;;;;;;;3.58;3.28;;;;;;;24.10;82.11;101177.66;10374807;28;20064;-71
2023/09/17 17:01:39;;;;;;;4.40;3.78;;;;;;;23.96;82.78;101162.84;10382969;28;20514;-69
2023/09/17 17:07:01;;;;;;;4.60;3.75;;;;;;;23.84;83.19;101171.78;10361841;28;20170;-66
2023/09/17 17:12:24;;;;;;;3.95;3.55;;;;;;;23.78;83.28;101178.41;10375882;28;20050;-67
2023/09/17 17:17:46;;;;;;;6.32;4.28;;;;;;;23.72;83.36;101167.44;10378815;28;20057;-67
2023/09/17 17:23:08;;;;;;;7.47;3.85;;;;;;;23.64;83.61;101173.34;10376677;28;20055;-67
2023/09/17 17:28:29;;;;;;;5.93;4.30;;;;;;;23.51;84.10;101166.50;10382678;28;20046;-66
2023/09/17 17:33:52;;;;;;;5.82;4.10;;;;;;;23.40;84.29;101166.50;10397512;28;20393;-66
2023/09/17 17:39:15;;;;;;;4.95;4.30;;;;;;;23.32;84.97;101176.81;10401760;28;20053;-66
2023/09/17 17:44:36;;;;;;;5.57;4.40;;;;;;;23.22;85.06;101154.69;10375138;28;20046;-66
2023/09/17 17:49:58;;;;;;;4.82;4.15;;;;;;;23.11;85.05;101162.59;10389478;28;20049;-67
2023/09/17 17:55:20;;;;;;;5.78;4.03;;;;;;;23.09;85.44;101156.59;10375139;28;20069;-67
2023/09/17 18:00:42;;;;;;;4.50;4.03;;;;;;;22.97;85.90;101155.72;10366974;28;20041;-66
2023/09/17 18:06:04;;;;;;;5.82;4.38;;;;;;;22.87;85.75;101154.75;10384774;28;20459;-66
2023/09/17 18:11:26;;;;;;;6.43;4.72;;;;;;;22.82;86.49;101154.25;10395170;28;20071;-66
2023/09/17 18:16:48;;;;;;;7.10;4.60;;;;;;;22.75;86.10;101158.31;10385202;28;20061;-66
2023/09/17 18:22:09;;;;;;;7.20;4.30;;;;;;;22.67;86.76;101155.41;10383802;28;20045;-66
2023/09/17 18:27:31;;;;;;;8.45;4.40;;;;;;;22.60;86.40;101152.38;10387236;28;20501;-66
2023/09/17 18:32:52;;;;;;;6.22;4.40;;;;;;;22.52;86.35;101154.75;10405792;28;20050;-66
2023/09/17 18:38:14;;;;;;;5.50;4.40;;;;;;;22.48;86.50;101147.16;10406623;28;20062;-66
2023/09/17 18:43:39;;;;;;;5.68;4.75;;;;;;;22.44;86.59;101145.69;10386246;28;20072;-66
2023/09/17 18:49:00;;;;;;;6.35;4.28;;;;;;;22.37;86.67;101144.47;10403138;28;20068;-66
2023/09/17 18:54:22;;;;;;;5.57;4.10;;;;;;;22.33;86.54;101145.63;10401775;28;20140;-66
2023/09/17 18:59:44;;;;;;;4.75;4.22;;;;;;;22.28;87.22;101140.72;10387690;28;20273;-66
2023/09/17 19:05:07;;;;;;;8.75;4.60;;;;;;;22.24;86.73;101141.03;10385975;28;20053;-67
2023/09/17 19:10:29;;;;;;;6.50;4.55;;;;;;;22.20;87.34;101145.69;10381778;28;20057;-66
2023/09/17 19:15:50;;;;;;;5.43;4.40;;;;;;;22.15;87.34;101145.19;10388444;28;20053;-66
2023/09/17 19:21:14;;;;;;;6.80;4.78;;;;;;;22.10;87.35;101142.06;10372681;28;20045;-67
2023/09/17 19:26:35;;;;;;;16.83;4.70;;;;;;;22.06;87.27;101143.25;10403657;28;20489;-67
2023/09/17 19:31:57;;;;;;;6.35;4.95;;;;;;;22.02;87.54;101131.22;10374689;28;20080;-66
2023/09/17 19:37:19;;;;;;;6.38;4.43;;;;;;;21.99;87.62;101113.81;10370940;28;20062;-67
2023/09/17 19:42:42;;;;;;;8.93;4.80;;;;;;;22.01;87.63;101124.28;10377790;28;20057;-66
2023/09/17 19:48:03;;;;;;;13.70;5.10;;;;;;;21.99;88.20;101113.00;10356682;28;20228;-66
2023/09/17 19:53:25;;;;;;;10.20;5.10;;;;;;;21.96;88.19;101100.03;10381155;28;20068;-66
2023/09/17 19:58:47;;;;;;;6.35;5.25;;;;;;;21.97;88.18;101104.38;10375808;28;20037;-66
2023/09/17 20:04:09;;;;;;;7.38;5.25;;;;;;;21.96;88.38;101098.25;10383935;28;20057;-66
2023/09/17 20:09:30;;;;;;;7.60;5.38;;;;;;;21.94;88.66;101086.13;10377831;28;20053;-66
2023/09/17 20:14:53;;;;;;;10.63;5.28;;;;;;;21.93;88.86;101077.38;10381705;28;20054;-66
2023/09/17 20:20:14;;;;;;;9.55;5.53;;;;;;;21.93;88.24;101061.56;10384875;28;20037;-66
2023/09/17 20:25:36;;;;;;;5.35;4.65;;;;;;;21.91;88.38;101062.63;10378807;28;20049;-67
2023/09/17 20:30:58;;;;;;;7.32;5.55;;;;;;;21.88;88.35;101062.88;10370378;28;20061;-67
2023/09/17 20:36:19;;;;;;;10.32;5.90;;;;;;;21.86;88.30;101085.84;10393755;28;20053;-67
2023/09/17 20:41:45;;;;;;;10.60;5.30;;;;;;;21.83;88.88;101070.25;10381015;28;20050;-67
2023/09/17 20:47:07;;;;;;;5.47;4.88;;;;;;;21.79;88.93;101074.91;10379231;28;20050;-67
2023/09/17 20:52:28;;;;;;;7.80;5.30;;;;;;;21.77;89.00;101060.94;10375309;28;20049;-67
2023/09/17 20:57:50;;;;;;;15.98;5.35;;;;;;;21.70;89.50;101059.72;10365209;28;20519;-67
2023/09/17 21:03:12;;;;;;;7.95;5.68;;;;;;;21.64;89.42;101051.44;10379208;28;20057;-66
2023/09/17 21:08:34;;;;;;;6.38;5.45;;;;;;;21.59;89.90;101048.31;10392596;28;20053;-68
2023/09/17 21:13:55;;;;;;;5.93;4.88;;;;;;;21.53;89.80;101046.94;10370179;28;20148;-67
2023/09/17 21:19:17;;;;;;;5.72;5.18;;;;;;;21.46;90.46;101050.94;10327179;28;20072;-67
2023/09/17 21:24:39;;;;;;;6.28;5.55;;;;;;;21.39;90.58;101039.16;10364286;28;20061;-67
2023/09/17 21:30:00;;;;;;;7.93;5.75;;;;;;;21.31;90.55;101046.78;10366089;28;20046;-67
2023/09/17 21:35:23;;;;;;;9.88;5.03;;;;;;;21.23;90.94;101053.53;10387750;28;20071;-67
2023/09/17 21:40:45;;;;;;;7.82;5.43;;;;;;;21.23;91.13;101045.63;10373386;28;20067;-67
2023/09/17 21:46:06;;;;;;;8.90;5.22;;;;;;;21.17;90.54;101056.63;10380743;28;20052;-67
2023/09/17 21:51:29;;;;;;;7.43;4.90;;;;;;;21.15;90.93;101067.22;10386518;28;20050;-67
2023/09/17 21:56:51;;;;;;;5.68;5.18;;;;;;;21.09;91.42;101061.56;10371565;28;20196;-66
2023/09/17 22:02:13;;;;;;;6.60;5.47;;;;;;;21.08;91.53;101054.63;10383147;28;20049;-66
2023/09/17 22:07:35;;;;;;;6.07;5.25;;;;;;;21.04;91.53;101047.88;10390603;28;20452;-67
2023/09/17 22:12:56;;;;;;;5.40;4.85;;;;;;;20.96;91.75;101048.38;10380387;28;20038;-66
2023/09/17 22:18:18;;;;;;;7.90;5.13;;;;;;;20.91;92.19;101032.91;10394222;28;20057;-66
2023/09/17 22:23:40;;;;;;;6.85;5.18;;;;;;;20.85;92.22;101025.47;10384954;28;20038;-66
2023/09/17 22:29:02;;;;;;;6.25;5.28;;;;;;;20.80;92.93;101024.91;10380980;28;20057;-66
2023/09/17 22:34:23;;;;;;;7.00;5.22;;;;;;;20.75;93.02;101029.66;10383822;28;20057;-67
2023/09/17 22:39:45;;;;;;;7.57;5.70;;;;;;;20.72;92.97;101031.66;10383264;28;20599;-67
2023/09/17 22:45:07;;;;;;;6.75;6.05;;;;;;;20.68;93.70;101019.66;10386036;28;20049;-67
2023/09/17 22:50:29;;;;;;;6.28;5.50;;;;;;;20.65;93.88;101018.09;10392226;28;20077;-66
2023/09/17 22:55:51;;;;;;;9.05;5.65;;;;;;;20.67;93.87;101018.00;10377479;28;20117;-67
2023/09/17 23:01:19;;;;;;;8.07;5.68;;;;;;;20.66;94.16;101008.41;10385219;28;20073;-66
2023/09/17 23:06:41;;;;;;;10.43;6.15;;;;;;;20.64;93.99;101002.41;10398746;28;20041;-66
2023/09/17 23:12:03;;;;;;;8.60;5.80;;;;;;;20.61;93.99;100986.84;10381795;28;20049;-67
2023/09/17 23:17:25;;;;;;;6.72;6.10;;;;;;;20.56;94.26;100974.03;10381504;28;20044;-67
2023/09/17 23:22:47;;;;;;;10.30;6.68;;;;;;;20.50;94.08;100963.91;10375876;28;20052;-67
2023/09/17 23:28:12;;;;;;;7.63;6.80;;;;;;;20.49;94.65;100962.22;10383716;28;20045;-67
2023/09/17 23:33:34;;;;;;;8.65;7.35;;;;;;;20.48;94.60;100964.97;10374338;28;20441;-67
2023/09/17 23:38:56;;;;;;;8.27;7.40;;;;;;;20.41;94.55;100951.41;10387749;28;20053;-67
2023/09/17 23:44:18;;;;;;;8.07;7.07;;;;;;;20.36;94.90;100943.00;10391146;28;20053;-67
2023/09/17 23:49:39;;;;;;;9.15;7.32;;;;;;;20.33;95.07;100935.31;10378448;28;20140;-66
2023/09/17 23:55:02;;;;;;;8.55;7.70;;;;;;;20.27;95.38;100930.50;10373855;28;20045;-67
